createdAt,value
2022-10-26T00:01:22.850Z,28.34
2022-10-26T00:03:51.590Z,28.39
2022-10-26T00:06:22.009Z,28.41
2022-10-26T00:08:52.874Z,28.44
2022-10-26T00:11:21.368Z,28.48
2022-10-26T00:13:50.307Z,28.50
2022-10-26T00:16:22.682Z,28.55
2022-10-26T00:18:51.742Z,28.57
2022-10-26T00:21:20.913Z,28.59
2022-10-26T00:23:49.470Z,28.61
2022-10-26T00:26:19.767Z,28.62
2022-10-26T00:28:48.952Z,28.63
2022-10-26T00:31:18.046Z,28.65
2022-10-26T00:33:46.514Z,28.64
2022-10-26T00:36:16.931Z,28.64
2022-10-26T00:38:50.653Z,28.65
2022-10-26T00:41:23.014Z,28.65
2022-10-26T00:43:52.043Z,28.64
2022-10-26T00:46:23.410Z,28.61
2022-10-26T00:48:55.788Z,28.60
2022-10-26T00:51:28.822Z,28.57
2022-10-26T00:53:57.790Z,28.55
2022-10-26T00:56:28.445Z,28.47
2022-10-26T00:58:58.516Z,28.41
2022-10-26T01:01:27.048Z,28.42
2022-10-26T01:03:56.701Z,28.41
2022-10-26T01:06:25.546Z,28.40
2022-10-26T01:08:54.167Z,28.37
2022-10-26T01:11:22.677Z,28.36
2022-10-26T01:13:55.299Z,28.33
2022-10-26T01:16:45.024Z,28.31
2022-10-26T01:19:52.191Z,28.31
2022-10-26T01:22:23.710Z,28.28
2022-10-26T01:25:05.372Z,28.32
2022-10-26T01:27:37.130Z,28.32
2022-10-26T01:30:28.143Z,28.37
2022-10-26T01:33:18.963Z,28.38
2022-10-26T01:35:55.304Z,28.39
2022-10-26T01:38:34.066Z,28.46
2022-10-26T01:41:06.244Z,28.43
2022-10-26T01:43:41.476Z,28.46
2022-10-26T01:46:12.690Z,28.49
2022-10-26T01:48:42.983Z,28.54
2022-10-26T01:51:13.340Z,28.57
2022-10-26T01:53:46.877Z,28.59
2022-10-26T01:56:21.159Z,28.59
2022-10-26T01:59:04.774Z,28.60
2022-10-26T02:02:13.571Z,28.60
2022-10-26T02:04:57.832Z,28.56
2022-10-26T02:07:36.463Z,28.56
2022-10-26T02:10:18.065Z,28.55
2022-10-26T02:12:55.804Z,28.55
2022-10-26T02:15:50.826Z,28.53
2022-10-26T02:18:31.338Z,28.52
2022-10-26T02:21:05.119Z,28.50
2022-10-26T02:23:36.689Z,28.51
2022-10-26T02:26:08.591Z,28.49
2022-10-26T02:28:47.017Z,28.48
2022-10-26T02:31:17.007Z,28.46
2022-10-26T02:33:50.670Z,28.45
2022-10-26T02:36:25.976Z,28.43
2022-10-26T02:38:57.155Z,28.41
2022-10-26T02:41:29.318Z,28.39
2022-10-26T02:44:04.123Z,28.39
2022-10-26T02:46:33.214Z,28.39
2022-10-26T02:49:03.149Z,28.40
2022-10-26T02:51:40.106Z,28.41
2022-10-26T02:54:15.616Z,28.42
2022-10-26T02:56:50.373Z,28.43
2022-10-26T02:59:21.694Z,28.46
2022-10-26T03:01:52.931Z,28.48
2022-10-26T03:04:29.917Z,28.51
2022-10-26T03:06:58.396Z,28.52
2022-10-26T03:09:27.767Z,28.54
2022-10-26T03:11:56.169Z,28.54
2022-10-26T03:14:24.917Z,28.55
2022-10-26T03:16:54.124Z,28.54
2022-10-26T03:19:24.242Z,28.54
2022-10-26T03:21:52.683Z,28.52
2022-10-26T03:24:21.070Z,28.50
2022-10-26T03:26:49.516Z,28.49
2022-10-26T03:29:17.939Z,28.47
2022-10-26T03:31:46.438Z,28.47
2022-10-26T03:34:14.878Z,28.44
2022-10-26T03:36:45.007Z,28.42
2022-10-26T03:39:13.515Z,28.41
2022-10-26T03:41:41.984Z,28.41
2022-10-26T03:44:10.528Z,28.39
2022-10-26T03:46:38.920Z,28.37
2022-10-26T03:49:07.403Z,28.33
2022-10-26T03:51:35.826Z,28.32
2022-10-26T03:54:06.015Z,28.28
2022-10-26T03:56:34.409Z,28.27
2022-10-26T03:59:02.882Z,28.25
2022-10-26T04:01:31.350Z,28.24
2022-10-26T04:03:59.856Z,28.24
2022-10-26T04:06:28.269Z,28.25
2022-10-26T04:09:02.034Z,28.27
2022-10-26T04:11:32.091Z,28.29
2022-10-26T04:14:00.847Z,28.33
2022-10-26T04:16:32.536Z,28.39
2022-10-26T04:19:02.419Z,28.45
2022-10-26T04:21:33.002Z,28.41
2022-10-26T04:24:01.518Z,28.37
2022-10-26T04:26:31.448Z,28.44
2022-10-26T04:28:59.910Z,28.45
2022-10-26T04:31:28.345Z,28.48
2022-10-26T04:33:56.845Z,28.52
2022-10-26T04:36:25.350Z,28.52
2022-10-26T04:38:53.803Z,28.52
2022-10-26T04:41:22.349Z,28.52
2022-10-26T04:43:52.233Z,28.51
2022-10-26T04:46:20.661Z,28.52
2022-10-26T04:48:49.309Z,28.53
2022-10-26T04:51:18.211Z,28.53
2022-10-26T04:53:46.371Z,28.44
2022-10-26T04:56:14.870Z,28.39
2022-10-26T04:58:43.410Z,28.40
2022-10-26T05:01:13.270Z,28.41
2022-10-26T05:03:41.807Z,28.46
2022-10-26T05:06:10.294Z,28.49
2022-10-26T05:08:38.673Z,28.50
2022-10-26T05:11:07.103Z,28.52
2022-10-26T05:13:35.577Z,28.57
2022-10-26T05:16:04.022Z,28.59
2022-10-26T05:18:33.948Z,28.63
2022-10-26T05:21:02.361Z,28.63
2022-10-26T05:23:30.822Z,28.66
2022-10-26T05:25:59.285Z,28.65
2022-10-26T05:28:27.754Z,28.62
2022-10-26T05:30:56.197Z,28.62
2022-10-26T05:33:24.771Z,28.64
2022-10-26T05:35:56.706Z,28.65
2022-10-26T05:40:59.238Z,28.66
2022-10-26T05:43:29.149Z,28.60
2022-10-26T05:45:58.196Z,28.56
2022-10-26T05:48:26.675Z,28.56
2022-10-26T05:50:59.751Z,28.56
2022-10-26T05:53:28.497Z,28.55
2022-10-26T05:55:57.773Z,28.52
2022-10-26T05:58:27.272Z,28.50
2022-10-26T06:01:11.677Z,28.48
2022-10-26T06:03:56.616Z,28.46
2022-10-26T06:06:29.781Z,28.44
2022-10-26T06:08:58.791Z,28.45
2022-10-26T06:11:27.396Z,28.41
2022-10-26T06:14:00.390Z,28.38
2022-10-26T06:16:36.001Z,28.43
2022-10-26T06:19:16.062Z,28.45
2022-10-26T06:21:57.668Z,28.49
2022-10-26T06:24:34.925Z,28.51
2022-10-26T06:27:17.089Z,28.56
2022-10-26T06:29:57.312Z,28.59
2022-10-26T06:32:26.195Z,28.60
2022-10-26T06:35:07.121Z,28.62
2022-10-26T06:37:38.661Z,28.64
2022-10-26T06:40:08.610Z,28.66
2022-10-26T06:42:37.696Z,28.68
2022-10-26T06:45:07.475Z,28.69
2022-10-26T06:47:43.668Z,28.70
2022-10-26T06:50:27.574Z,28.70
2022-10-26T06:53:07.287Z,28.67
2022-10-26T06:55:41.933Z,28.67
2022-10-26T06:58:15.430Z,28.67
2022-10-26T07:00:45.970Z,28.66
2022-10-26T07:03:14.496Z,28.64
2022-10-26T07:05:44.053Z,28.63
2022-10-26T07:08:14.189Z,28.60
2022-10-26T07:10:43.720Z,28.59
2022-10-26T07:13:12.612Z,28.58
2022-10-26T07:15:41.193Z,28.50
2022-10-26T07:18:10.091Z,28.44
2022-10-26T07:20:39.120Z,28.37
2022-10-26T07:23:11.034Z,28.31
2022-10-26T07:25:41.365Z,28.33
2022-10-26T07:28:11.331Z,28.34
2022-10-26T07:30:41.374Z,28.35
2022-10-26T07:33:12.006Z,28.36
2022-10-26T07:35:40.738Z,28.33
2022-10-26T07:38:09.664Z,28.32
2022-10-26T07:40:38.455Z,28.29
2022-10-26T07:43:08.354Z,28.26
2022-10-26T07:45:37.728Z,28.24
2022-10-26T07:48:06.352Z,28.22
2022-10-26T07:50:34.907Z,28.19
2022-10-26T07:53:03.360Z,28.17
2022-10-26T07:55:31.845Z,28.14
2022-10-26T07:58:00.575Z,28.13
2022-10-26T08:00:30.984Z,28.11
2022-10-26T08:02:59.548Z,28.10
2022-10-26T08:05:28.088Z,28.08
2022-10-26T08:07:56.557Z,28.07
2022-10-26T08:10:25.014Z,28.08
2022-10-26T08:12:55.216Z,28.11
2022-10-26T08:15:23.663Z,28.14
2022-10-26T08:17:53.544Z,28.18
2022-10-26T08:20:21.942Z,28.22
2022-10-26T08:22:50.692Z,28.25
2022-10-26T08:25:21.438Z,28.27
2022-10-26T08:27:50.293Z,28.30
2022-10-26T08:30:19.140Z,28.33
2022-10-26T08:32:47.626Z,28.30
2022-10-26T08:35:17.792Z,28.24
2022-10-26T08:37:46.220Z,28.25
2022-10-26T08:40:17.997Z,28.32
2022-10-26T08:42:51.918Z,28.38
2022-10-26T08:45:31.790Z,28.42
2022-10-26T08:48:09.082Z,28.47
2022-10-26T08:50:43.900Z,28.50
2022-10-26T08:53:22.768Z,28.53
2022-10-26T08:55:54.549Z,28.48
2022-10-26T08:58:29.919Z,28.47
2022-10-26T09:00:58.475Z,28.51
2022-10-26T09:03:27.223Z,28.53
2022-10-26T09:06:14.582Z,28.55
2022-10-26T09:08:52.227Z,28.55
2022-10-26T09:11:36.145Z,28.57
2022-10-26T09:14:14.995Z,28.57
2022-10-26T09:16:49.168Z,28.50
2022-10-26T09:19:41.161Z,28.46
2022-10-26T09:22:18.688Z,28.45
2022-10-26T09:24:53.912Z,28.46
2022-10-26T09:27:28.660Z,28.47
2022-10-26T09:29:59.272Z,28.46
2022-10-26T09:32:33.679Z,28.48
2022-10-26T09:35:06.544Z,28.50
2022-10-26T09:37:41.940Z,28.54
2022-10-26T09:40:17.681Z,28.56
2022-10-26T09:42:52.092Z,28.56
2022-10-26T09:45:27.048Z,28.58
2022-10-26T09:48:02.752Z,28.59
2022-10-26T09:50:36.387Z,28.59
2022-10-26T09:53:06.469Z,28.60
2022-10-26T09:55:40.595Z,28.62
2022-10-26T09:58:15.901Z,28.64
2022-10-26T10:00:46.018Z,28.63
2022-10-26T10:03:28.097Z,28.66
2022-10-26T10:06:17.060Z,28.67
2022-10-26T10:09:06.785Z,28.66
2022-10-26T10:11:42.640Z,28.65
2022-10-26T10:14:17.829Z,28.65
2022-10-26T10:16:54.925Z,28.65
2022-10-26T10:19:26.456Z,28.64
2022-10-26T10:21:57.930Z,28.63
2022-10-26T10:24:32.804Z,28.62
2022-10-26T10:27:04.118Z,28.61
2022-10-26T10:29:34.756Z,28.62
2022-10-26T10:32:05.211Z,28.63
2022-10-26T10:34:36.210Z,28.64
2022-10-26T10:37:05.685Z,28.65
2022-10-26T10:39:44.704Z,28.67
2022-10-26T10:42:20.030Z,28.67
2022-10-26T10:44:52.991Z,28.69
2022-10-26T10:47:25.161Z,28.70
2022-10-26T10:49:58.326Z,28.72
2022-10-26T10:52:29.593Z,28.73
2022-10-26T10:55:19.623Z,28.75
2022-10-26T10:58:09.909Z,28.75
2022-10-26T11:00:39.351Z,28.75
2022-10-26T11:03:26.218Z,28.77
2022-10-26T11:06:07.306Z,28.76
2022-10-26T11:08:42.273Z,28.75
2022-10-26T11:11:16.670Z,28.74
2022-10-26T11:13:51.622Z,28.75
2022-10-26T11:16:25.030Z,28.75
2022-10-26T11:18:59.573Z,28.76
2022-10-26T11:21:30.761Z,28.78
2022-10-26T11:24:11.364Z,28.79
2022-10-26T11:26:47.801Z,28.79
2022-10-26T11:29:27.809Z,28.81
2022-10-26T11:32:01.844Z,28.82
2022-10-26T11:34:37.560Z,28.84
2022-10-26T11:37:11.244Z,28.86
2022-10-26T11:39:46.318Z,28.87
2022-10-26T11:42:26.158Z,28.89
2022-10-26T11:45:00.924Z,28.88
2022-10-26T11:47:39.031Z,28.90
2022-10-26T11:50:17.798Z,28.90
2022-10-26T11:52:50.591Z,28.87
2022-10-26T11:55:21.736Z,28.89
2022-10-26T11:57:53.836Z,28.87
2022-10-26T12:00:23.735Z,28.88
2022-10-26T12:02:57.290Z,28.88
2022-10-26T12:05:35.058Z,28.88
2022-10-26T12:08:07.570Z,28.86
2022-10-26T12:10:41.468Z,28.82
2022-10-26T12:13:20.622Z,28.80
2022-10-26T12:16:08.998Z,28.79
2022-10-26T12:18:55.089Z,28.76
2022-10-26T12:21:27.842Z,28.72
2022-10-26T12:23:58.740Z,28.69
2022-10-26T12:26:51.999Z,28.68
2022-10-26T12:29:37.330Z,28.65
2022-10-26T12:32:21.903Z,28.64
2022-10-26T12:35:03.290Z,28.65
2022-10-26T12:37:37.050Z,28.62
2022-10-26T12:40:41.843Z,28.63
2022-10-26T12:43:36.089Z,28.62
2022-10-26T12:46:41.209Z,28.60
2022-10-26T12:49:54.663Z,28.59
2022-10-26T12:52:45.391Z,28.52
2022-10-26T12:55:36.185Z,28.51
2022-10-26T12:58:24.473Z,28.50
2022-10-26T13:01:18.810Z,28.50
2022-10-26T13:03:56.071Z,28.48
2022-10-26T13:06:41.643Z,28.46
2022-10-26T13:09:19.837Z,28.45
2022-10-26T13:11:51.491Z,28.41
2022-10-26T13:14:23.837Z,28.40
2022-10-26T13:16:52.671Z,28.39
2022-10-26T13:19:28.609Z,28.38
2022-10-26T13:22:00.410Z,28.37
2022-10-26T13:24:33.900Z,28.36
2022-10-26T13:27:25.075Z,28.33
2022-10-26T13:30:46.986Z,28.31
2022-10-26T13:33:32.563Z,28.24
2022-10-26T13:36:07.735Z,28.19
2022-10-26T13:38:38.803Z,28.18
2022-10-26T13:41:19.177Z,28.18
2022-10-26T13:43:49.068Z,28.16
2022-10-26T13:46:26.462Z,28.15
2022-10-26T13:49:00.319Z,28.10
2022-10-26T13:51:40.432Z,28.08
2022-10-26T13:54:19.786Z,28.06
2022-10-26T13:57:02.783Z,28.04
2022-10-26T13:59:34.466Z,28.02
2022-10-26T14:02:17.966Z,28.03
2022-10-26T14:04:53.224Z,28.02
2022-10-26T14:07:24.353Z,28.02
2022-10-26T14:09:55.229Z,28.02
2022-10-26T14:12:25.781Z,28.06
2022-10-26T14:14:55.593Z,28.10
2022-10-26T14:17:26.996Z,28.14
2022-10-26T14:19:56.050Z,28.17
2022-10-26T14:22:28.036Z,28.20
2022-10-26T14:24:58.615Z,28.24
2022-10-26T14:27:33.060Z,28.27
2022-10-26T14:30:22.021Z,28.30
2022-10-26T14:32:52.241Z,28.31
2022-10-26T14:35:25.819Z,28.35
2022-10-26T14:37:59.922Z,28.38
2022-10-26T14:40:31.375Z,28.39
2022-10-26T14:43:02.652Z,28.41
2022-10-26T14:45:47.963Z,28.42
2022-10-26T14:48:24.192Z,28.43
2022-10-26T14:51:00.652Z,28.43
2022-10-26T14:53:40.493Z,28.44
2022-10-26T14:56:23.011Z,28.45
2022-10-26T14:58:53.302Z,28.46
2022-10-26T15:01:33.329Z,28.48
2022-10-26T15:04:06.208Z,28.49
2022-10-26T15:06:40.372Z,28.51
2022-10-26T15:09:34.003Z,28.56
2022-10-26T15:12:04.108Z,28.56
2022-10-26T15:14:35.890Z,28.60
2022-10-26T15:17:04.858Z,28.61
2022-10-26T15:19:41.097Z,28.58
2022-10-26T15:22:23.687Z,28.57
2022-10-26T15:24:55.587Z,28.59
2022-10-26T15:27:24.613Z,28.60
2022-10-26T15:30:12.125Z,28.64
2022-10-26T15:32:41.021Z,28.63
2022-10-26T15:35:27.674Z,28.60
2022-10-26T15:37:57.479Z,28.55
2022-10-26T15:40:29.221Z,28.59
2022-10-26T15:43:01.014Z,28.59
2022-10-26T15:45:33.293Z,28.62
2022-10-26T15:48:19.553Z,28.64
2022-10-26T15:50:48.090Z,28.63
2022-10-26T15:53:21.674Z,28.62
2022-10-26T15:55:51.323Z,28.60
2022-10-26T15:58:20.137Z,28.58
2022-10-26T16:00:50.059Z,28.49
2022-10-26T16:03:21.963Z,28.44
2022-10-26T16:05:54.985Z,28.43
2022-10-26T16:08:24.137Z,28.43
2022-10-26T16:10:52.867Z,28.40
2022-10-26T16:13:21.265Z,28.31
2022-10-26T16:15:51.335Z,28.32
2022-10-26T16:18:20.310Z,28.38
2022-10-26T16:20:49.960Z,28.44
2022-10-26T16:23:18.668Z,28.48
2022-10-26T16:25:48.731Z,28.52
2022-10-26T16:28:18.454Z,28.56
2022-10-26T16:30:47.238Z,28.60
2022-10-26T16:33:17.755Z,28.64
2022-10-26T16:35:46.443Z,28.68
2022-10-26T16:38:15.287Z,28.71
2022-10-26T16:40:45.539Z,28.67
2022-10-26T16:43:14.671Z,28.66
2022-10-26T16:45:42.983Z,28.65
2022-10-26T16:48:15.695Z,28.63
2022-10-26T16:50:46.212Z,28.70
2022-10-26T16:53:15.218Z,28.74
2022-10-26T16:55:44.734Z,28.79
2022-10-26T16:58:13.362Z,28.81
2022-10-26T17:00:42.169Z,28.84
2022-10-26T17:03:10.593Z,28.82
2022-10-26T17:05:39.179Z,28.80
2022-10-26T17:08:09.534Z,28.84
2022-10-26T17:10:38.079Z,28.89
2022-10-26T17:13:06.519Z,28.94
2022-10-26T17:15:35.057Z,28.98
2022-10-26T17:18:03.531Z,29.02
2022-10-26T17:20:32.054Z,29.04
2022-10-26T17:23:00.617Z,29.07
2022-10-26T17:25:30.736Z,29.10
2022-10-26T17:27:59.656Z,29.11
2022-10-26T17:30:31.588Z,29.14
2022-10-26T17:33:04.110Z,29.14
2022-10-26T17:35:34.160Z,29.12
2022-10-26T17:38:02.927Z,29.10
2022-10-26T17:40:32.805Z,29.11
2022-10-26T17:43:01.653Z,29.10
2022-10-26T17:45:30.047Z,29.10
2022-10-26T17:47:58.592Z,29.10
2022-10-26T17:50:27.142Z,29.12
2022-10-26T17:52:56.620Z,29.17
2022-10-26T17:55:26.690Z,29.21
2022-10-26T17:57:56.582Z,29.24
2022-10-26T18:00:25.145Z,29.28
2022-10-26T18:02:53.773Z,29.32
2022-10-26T18:05:22.314Z,29.34
2022-10-26T18:07:51.239Z,29.34
2022-10-26T18:10:36.917Z,29.38
2022-10-26T18:13:08.336Z,29.40
2022-10-26T18:15:37.480Z,29.41
2022-10-26T18:18:06.263Z,29.42
2022-10-26T18:20:34.837Z,29.42
2022-10-26T18:23:03.618Z,29.41
2022-10-26T18:25:32.759Z,29.39
2022-10-26T18:28:01.691Z,29.37
2022-10-26T18:30:35.245Z,29.32
2022-10-26T18:33:04.262Z,29.26
2022-10-26T18:35:33.464Z,29.25
2022-10-26T18:38:02.110Z,29.26
2022-10-26T18:40:30.817Z,29.23
2022-10-26T18:42:59.398Z,29.21
2022-10-26T18:45:28.028Z,29.18
2022-10-26T18:47:58.051Z,29.15
2022-10-26T18:50:26.679Z,29.12
2022-10-26T18:52:55.167Z,29.10
2022-10-26T18:55:23.717Z,29.06
2022-10-26T18:57:52.597Z,29.01
2022-10-26T19:00:21.378Z,29.00
2022-10-26T19:02:52.418Z,28.96
2022-10-26T19:05:22.816Z,28.95
2022-10-26T19:07:51.501Z,28.91
2022-10-26T19:10:20.026Z,28.86
2022-10-26T19:12:48.690Z,28.82
2022-10-26T19:15:17.362Z,28.72
2022-10-26T19:17:45.792Z,28.63
2022-10-26T19:20:14.667Z,28.61
2022-10-26T19:22:44.634Z,28.60
2022-10-26T19:25:13.107Z,28.57
2022-10-26T19:27:41.534Z,28.56
2022-10-26T19:30:10.546Z,28.48
2022-10-26T19:32:38.969Z,28.43
2022-10-26T19:35:08.072Z,28.43
2022-10-26T19:37:36.608Z,28.46
2022-10-26T19:40:07.634Z,28.49
2022-10-26T19:42:36.148Z,28.51
2022-10-26T19:45:04.935Z,28.56
2022-10-26T19:47:33.168Z,28.55
2022-10-26T19:50:01.641Z,28.53
2022-10-26T19:52:31.578Z,28.60
2022-10-26T19:55:00.049Z,28.66
2022-10-26T19:57:29.849Z,28.73
2022-10-26T19:59:58.393Z,28.78
2022-10-26T20:02:26.874Z,28.83
2022-10-26T20:04:55.344Z,28.88
2022-10-26T20:07:23.935Z,28.91
2022-10-26T20:09:52.509Z,28.93
2022-10-26T20:12:20.849Z,28.94
2022-10-26T20:14:50.800Z,28.98
2022-10-26T20:17:19.301Z,29.00
2022-10-26T20:19:47.874Z,29.02
2022-10-26T20:22:16.300Z,29.02
2022-10-26T20:24:44.730Z,29.03
2022-10-26T20:27:13.263Z,29.03
2022-10-26T20:29:41.690Z,29.04
2022-10-26T20:32:15.335Z,29.03
2022-10-26T20:34:46.228Z,29.00
2022-10-26T20:37:15.486Z,28.99
2022-10-26T20:39:44.531Z,28.97
2022-10-26T20:42:24.025Z,28.94
2022-10-26T20:44:56.404Z,28.90
2022-10-26T20:47:26.952Z,28.89
2022-10-26T20:49:55.897Z,28.87
2022-10-26T20:52:29.568Z,28.78
2022-10-26T20:55:05.012Z,28.74
2022-10-26T20:57:35.999Z,28.75
2022-10-26T21:00:09.154Z,28.77
2022-10-26T21:02:39.119Z,28.77
2022-10-26T21:05:08.273Z,28.79
2022-10-26T21:07:36.680Z,28.83
2022-10-26T21:10:05.638Z,28.85
2022-10-26T21:12:33.846Z,28.83
2022-10-26T21:15:02.253Z,28.84
2022-10-26T21:17:34.519Z,28.91
2022-10-26T21:20:04.693Z,28.96
2022-10-26T21:22:33.099Z,29.01
2022-10-26T21:25:01.620Z,29.05
2022-10-26T21:27:31.658Z,29.09
2022-10-26T21:30:00.139Z,29.12
2022-10-26T21:32:28.550Z,29.13
2022-10-26T21:34:57.020Z,29.14
2022-10-26T21:37:28.117Z,29.15
2022-10-26T21:39:56.687Z,29.17
2022-10-26T21:42:25.261Z,29.19
2022-10-26T21:44:53.704Z,29.17
2022-10-26T21:47:22.239Z,29.15
2022-10-26T21:49:50.639Z,29.16
2022-10-26T21:52:19.112Z,29.13
2022-10-26T21:54:48.993Z,29.13
2022-10-26T21:57:17.640Z,29.11
2022-10-26T21:59:46.116Z,29.10
2022-10-26T22:02:14.662Z,29.08
2022-10-26T22:04:43.169Z,29.04
2022-10-26T22:07:11.709Z,29.02
2022-10-26T22:09:49.427Z,28.99
2022-10-26T22:12:29.959Z,28.94
2022-10-26T22:14:58.425Z,28.92
2022-10-26T22:17:26.804Z,28.89
2022-10-26T22:19:55.356Z,28.88
2022-10-26T22:22:23.701Z,28.89
2022-10-26T22:24:52.219Z,28.91
2022-10-26T22:27:20.679Z,28.93
2022-10-26T22:29:50.514Z,28.96
2022-10-26T22:32:19.048Z,29.01
2022-10-26T22:34:47.685Z,29.04
2022-10-26T22:37:16.219Z,29.08
2022-10-26T22:39:44.721Z,29.10
2022-10-26T22:42:13.751Z,29.12
2022-10-26T22:44:41.985Z,29.09
2022-10-26T22:47:11.847Z,29.05
2022-10-26T22:49:40.350Z,29.08
2022-10-26T22:52:08.696Z,29.11
2022-10-26T22:54:37.109Z,29.12
2022-10-26T22:57:05.634Z,29.15
2022-10-26T22:59:34.136Z,29.15
2022-10-26T23:02:02.708Z,29.16
2022-10-26T23:04:32.629Z,29.16
2022-10-26T23:07:01.144Z,29.15
2022-10-26T23:09:29.540Z,29.13
2022-10-26T23:11:57.934Z,29.12
2022-10-26T23:14:26.429Z,29.11
2022-10-26T23:16:54.914Z,29.09
2022-10-26T23:19:23.463Z,29.05
2022-10-26T23:21:53.175Z,29.04
2022-10-26T23:24:21.706Z,29.01
2022-10-26T23:26:50.093Z,29.00
2022-10-26T23:29:18.593Z,28.96
2022-10-26T23:31:47.023Z,28.94
2022-10-26T23:34:15.462Z,28.92
2022-10-26T23:36:43.988Z,28.91
2022-10-26T23:39:13.913Z,28.90
2022-10-26T23:41:42.420Z,28.92
2022-10-26T23:44:10.926Z,28.94
2022-10-26T23:46:39.553Z,28.97
2022-10-26T23:49:07.961Z,29.00
2022-10-26T23:51:36.411Z,29.03
2022-10-26T23:54:05.023Z,29.05
2022-10-26T23:56:34.958Z,29.09
2022-10-26T23:59:07.493Z,29.11
